sensor_id;sensor_type;location;lat;lon;timestamp;pressure;altitude;pressure_sealevel;temperature;humidity
50356;BME280;36264;51.296;-0.602;2022-12-18T00:01:01;101996.19;;;-3.81;100.00
50356;BME280;36264;51.296;-0.602;2022-12-18T00:03:34;101987.56;;;-3.85;100.00
50356;BME280;36264;51.296;-0.602;2022-12-18T00:05:59;101982.13;;;-3.92;100.00
50356;BME280;36264;51.296;-0.602;2022-12-18T00:08:25;101977.78;;;-3.95;100.00
50356;BME280;36264;51.296;-0.602;2022-12-18T00:10:50;101978.34;;;-4.01;100.00
50356;BME280;36264;51.296;-0.602;2022-12-18T00:13:15;101982.56;;;-4.01;100.00
50356;BME280;36264;51.296;-0.602;2022-12-18T00:15:41;101968.84;;;-4.05;100.00
50356;BME280;36264;51.296;-0.602;2022-12-18T00:18:06;101994.59;;;-3.97;100.00
50356;BME280;36264;51.296;-0.602;2022-12-18T00:20:39;101986.91;;;-3.98;100.00
50356;BME280;36264;51.296;-0.602;2022-12-18T00:23:06;101981.53;;;-4.05;100.00
50356;BME280;36264;51.296;-0.602;2022-12-18T00:25:35;101978.97;;;-4.05;100.00
50356;BME280;36264;51.296;-0.602;2022-12-18T00:28:02;101978.19;;;-4.04;100.00
50356;BME280;36264;51.296;-0.602;2022-12-18T00:30:27;101972.09;;;-4.07;100.00
50356;BME280;36264;51.296;-0.602;2022-12-18T00:32:52;101981.44;;;-4.06;100.00
50356;BME280;36264;51.296;-0.602;2022-12-18T00:35:18;101968.41;;;-4.14;100.00
50356;BME280;36264;51.296;-0.602;2022-12-18T00:37:43;101971.16;;;-4.09;100.00
50356;BME280;36264;51.296;-0.602;2022-12-18T00:40:09;101961.81;;;-4.10;100.00
50356;BME280;36264;51.296;-0.602;2022-12-18T00:42:36;101962.44;;;-4.14;100.00
50356;BME280;36264;51.296;-0.602;2022-12-18T00:45:19;101959.19;;;-4.12;100.00
50356;BME280;36264;51.296;-0.602;2022-12-18T00:47:45;101952.88;;;-4.20;100.00
50356;BME280;36264;51.296;-0.602;2022-12-18T00:50:10;101955.50;;;-4.19;100.00
50356;BME280;36264;51.296;-0.602;2022-12-18T00:52:35;101954.59;;;-4.19;100.00
50356;BME280;36264;51.296;-0.602;2022-12-18T00:55:01;101948.44;;;-4.24;100.00
50356;BME280;36264;51.296;-0.602;2022-12-18T00:57:26;101950.97;;;-4.24;100.00
50356;BME280;36264;51.296;-0.602;2022-12-18T00:59:51;101943.06;;;-4.30;100.00
50356;BME280;36264;51.296;-0.602;2022-12-18T01:02:17;101933.00;;;-4.29;100.00
50356;BME280;36264;51.296;-0.602;2022-12-18T01:04:42;101920.91;;;-4.34;100.00
50356;BME280;36264;51.296;-0.602;2022-12-18T01:07:08;101934.16;;;-4.22;100.00
50356;BME280;36264;51.296;-0.602;2022-12-18T01:09:33;101910.03;;;-4.32;100.00
50356;BME280;36264;51.296;-0.602;2022-12-18T01:11:59;101926.78;;;-4.18;100.00
50356;BME280;36264;51.296;-0.602;2022-12-18T01:14:24;101922.38;;;-4.22;100.00
50356;BME280;36264;51.296;-0.602;2022-12-18T01:16:50;101919.16;;;-4.18;100.00
50356;BME280;36264;51.296;-0.602;2022-12-18T01:19:15;101919.91;;;-4.20;100.00
50356;BME280;36264;51.296;-0.602;2022-12-18T01:21:40;101911.09;;;-4.27;100.00
50356;BME280;36264;51.296;-0.602;2022-12-18T01:24:06;101921.19;;;-4.28;100.00
50356;BME280;36264;51.296;-0.602;2022-12-18T01:26:32;101919.22;;;-4.34;100.00
50356;BME280;36264;51.296;-0.602;2022-12-18T01:28:57;101913.41;;;-4.31;100.00
50356;BME280;36264;51.296;-0.602;2022-12-18T01:31:28;101920.16;;;-4.32;100.00
50356;BME280;36264;51.296;-0.602;2022-12-18T01:33:55;101919.31;;;-4.32;100.00
50356;BME280;36264;51.296;-0.602;2022-12-18T01:36:22;101920.91;;;-4.34;100.00
50356;BME280;36264;51.296;-0.602;2022-12-18T01:38:48;101917.56;;;-4.33;100.00
50356;BME280;36264;51.296;-0.602;2022-12-18T01:41:16;101905.63;;;-4.36;100.00
50356;BME280;36264;51.296;-0.602;2022-12-18T01:43:56;101899.56;;;-4.38;100.00
50356;BME280;36264;51.296;-0.602;2022-12-18T01:46:23;101905.75;;;-4.33;100.00
50356;BME280;36264;51.296;-0.602;2022-12-18T01:48:53;101901.47;;;-4.34;100.00
50356;BME280;36264;51.296;-0.602;2022-12-18T01:51:19;101908.31;;;-4.33;100.00
50356;BME280;36264;51.296;-0.602;2022-12-18T01:53:45;101904.94;;;-4.32;100.00
50356;BME280;36264;51.296;-0.602;2022-12-18T01:56:17;101910.03;;;-4.32;100.00
50356;BME280;36264;51.296;-0.602;2022-12-18T01:58:50;101901.47;;;-4.34;100.00
50356;BME280;36264;51.296;-0.602;2022-12-18T02:01:18;101900.53;;;-4.36;100.00
50356;BME280;36264;51.296;-0.602;2022-12-18T02:03:45;101917.25;;;-4.40;100.00
50356;BME280;36264;51.296;-0.602;2022-12-18T02:06:16;101922.47;;;-4.37;100.00
50356;BME280;36264;51.296;-0.602;2022-12-18T02:11:31;101929.06;;;-4.40;100.00
50356;BME280;36264;51.296;-0.602;2022-12-18T02:17:09;101929.31;;;-4.35;100.00
50356;BME280;36264;51.296;-0.602;2022-12-18T02:22:32;101934.31;;;-4.37;100.00
50356;BME280;36264;51.296;-0.602;2022-12-18T02:25:12;101930.91;;;-4.38;100.00
50356;BME280;36264;51.296;-0.602;2022-12-18T02:27:39;101937.69;;;-4.37;100.00
50356;BME280;36264;51.296;-0.602;2022-12-18T02:30:07;101931.69;;;-4.39;100.00
50356;BME280;36264;51.296;-0.602;2022-12-18T02:32:39;101936.75;;;-4.39;100.00
50356;BME280;36264;51.296;-0.602;2022-12-18T02:35:11;101938.59;;;-4.36;100.00
50356;BME280;36264;51.296;-0.602;2022-12-18T02:37:39;101936.84;;;-4.37;100.00
50356;BME280;36264;51.296;-0.602;2022-12-18T02:40:05;101929.94;;;-4.40;100.00
50356;BME280;36264;51.296;-0.602;2022-12-18T02:42:32;101932.31;;;-4.43;100.00
50356;BME280;36264;51.296;-0.602;2022-12-18T02:44:57;101942.91;;;-4.33;100.00
50356;BME280;36264;51.296;-0.602;2022-12-18T02:47:26;101934.69;;;-4.29;100.00
50356;BME280;36264;51.296;-0.602;2022-12-18T02:55:19;101926.63;;;-4.21;100.00
50356;BME280;36264;51.296;-0.602;2022-12-18T02:57:58;101920.75;;;-4.20;100.00
50356;BME280;36264;51.296;-0.602;2022-12-18T03:03:29;101893.50;;;-4.24;100.00
50356;BME280;36264;51.296;-0.602;2022-12-18T03:06:09;101897.63;;;-4.26;100.00
50356;BME280;36264;51.296;-0.602;2022-12-18T03:08:46;101897.72;;;-4.24;100.00
50356;BME280;36264;51.296;-0.602;2022-12-18T03:11:14;101897.56;;;-4.27;100.00
50356;BME280;36264;51.296;-0.602;2022-12-18T03:13:52;101878.66;;;-4.34;100.00
50356;BME280;36264;51.296;-0.602;2022-12-18T03:16:22;101885.31;;;-4.36;100.00
50356;BME280;36264;51.296;-0.602;2022-12-18T03:18:54;101871.53;;;-4.41;100.00
50356;BME280;36264;51.296;-0.602;2022-12-18T03:21:26;101876.81;;;-4.37;100.00
50356;BME280;36264;51.296;-0.602;2022-12-18T03:23:54;101870.03;;;-4.38;100.00
50356;BME280;36264;51.296;-0.602;2022-12-18T03:26:22;101883.19;;;-4.27;100.00
50356;BME280;36264;51.296;-0.602;2022-12-18T03:28:52;101886.84;;;-4.22;100.00
50356;BME280;36264;51.296;-0.602;2022-12-18T03:31:22;101875.03;;;-4.21;100.00
50356;BME280;36264;51.296;-0.602;2022-12-18T03:33:53;101882.06;;;-4.15;100.00
50356;BME280;36264;51.296;-0.602;2022-12-18T03:36:19;101875.47;;;-4.12;100.00
50356;BME280;36264;51.296;-0.602;2022-12-18T03:38:44;101869.50;;;-4.12;100.00
50356;BME280;36264;51.296;-0.602;2022-12-18T03:41:42;101868.84;;;-4.08;100.00
50356;BME280;36264;51.296;-0.602;2022-12-18T03:44:15;101857.25;;;-4.03;100.00
50356;BME280;36264;51.296;-0.602;2022-12-18T03:46:58;101854.00;;;-4.01;100.00
50356;BME280;36264;51.296;-0.602;2022-12-18T03:49:35;101876.97;;;-3.97;100.00
50356;BME280;36264;51.296;-0.602;2022-12-18T03:52:07;101867.03;;;-3.93;100.00
50356;BME280;36264;51.296;-0.602;2022-12-18T03:54:35;101857.88;;;-3.89;100.00
50356;BME280;36264;51.296;-0.602;2022-12-18T03:57:05;101853.38;;;-3.77;100.00
50356;BME280;36264;51.296;-0.602;2022-12-18T03:59:32;101851.75;;;-3.75;100.00
50356;BME280;36264;51.296;-0.602;2022-12-18T04:02:00;101847.03;;;-3.67;100.00
50356;BME280;36264;51.296;-0.602;2022-12-18T04:04:27;101842.09;;;-3.64;100.00
50356;BME280;36264;51.296;-0.602;2022-12-18T04:06:53;101842.16;;;-3.62;100.00
50356;BME280;36264;51.296;-0.602;2022-12-18T04:09:20;101841.75;;;-3.52;100.00
50356;BME280;36264;51.296;-0.602;2022-12-18T04:11:46;101838.50;;;-3.50;100.00
50356;BME280;36264;51.296;-0.602;2022-12-18T04:14:12;101840.53;;;-3.42;100.00
50356;BME280;36264;51.296;-0.602;2022-12-18T04:16:37;101855.06;;;-3.38;100.00
50356;BME280;36264;51.296;-0.602;2022-12-18T04:19:04;101850.25;;;-3.32;100.00
50356;BME280;36264;51.296;-0.602;2022-12-18T04:21:29;101833.28;;;-3.33;100.00
50356;BME280;36264;51.296;-0.602;2022-12-18T04:23:55;101833.59;;;-3.25;100.00
50356;BME280;36264;51.296;-0.602;2022-12-18T04:26:20;101831.34;;;-3.19;100.00
50356;BME280;36264;51.296;-0.602;2022-12-18T04:28:45;101848.66;;;-3.11;100.00
50356;BME280;36264;51.296;-0.602;2022-12-18T04:31:12;101846.31;;;-3.06;100.00
50356;BME280;36264;51.296;-0.602;2022-12-18T04:33:37;101835.53;;;-3.00;100.00
50356;BME280;36264;51.296;-0.602;2022-12-18T04:36:03;101824.69;;;-2.96;100.00
50356;BME280;36264;51.296;-0.602;2022-12-18T04:38:29;101810.56;;;-2.89;100.00
50356;BME280;36264;51.296;-0.602;2022-12-18T04:40:54;101801.94;;;-2.93;100.00
50356;BME280;36264;51.296;-0.602;2022-12-18T04:43:19;101809.25;;;-2.80;100.00
50356;BME280;36264;51.296;-0.602;2022-12-18T04:45:45;101804.34;;;-2.75;100.00
50356;BME280;36264;51.296;-0.602;2022-12-18T04:48:10;101784.94;;;-2.73;100.00
50356;BME280;36264;51.296;-0.602;2022-12-18T04:50:35;101787.72;;;-2.67;100.00
50356;BME280;36264;51.296;-0.602;2022-12-18T04:53:01;101780.91;;;-2.68;100.00
50356;BME280;36264;51.296;-0.602;2022-12-18T04:55:26;101791.31;;;-2.62;100.00
50356;BME280;36264;51.296;-0.602;2022-12-18T04:57:52;101783.97;;;-2.54;100.00
50356;BME280;36264;51.296;-0.602;2022-12-18T05:00:18;101774.81;;;-2.50;100.00
50356;BME280;36264;51.296;-0.602;2022-12-18T05:02:43;101778.53;;;-2.42;100.00
50356;BME280;36264;51.296;-0.602;2022-12-18T05:05:09;101766.84;;;-2.37;100.00
50356;BME280;36264;51.296;-0.602;2022-12-18T05:07:34;101758.41;;;-2.36;100.00
50356;BME280;36264;51.296;-0.602;2022-12-18T05:10:00;101765.69;;;-2.23;100.00
50356;BME280;36264;51.296;-0.602;2022-12-18T05:12:25;101761.63;;;-2.17;100.00
50356;BME280;36264;51.296;-0.602;2022-12-18T05:14:51;101764.41;;;-2.11;100.00
50356;BME280;36264;51.296;-0.602;2022-12-18T05:17:17;101760.31;;;-2.08;100.00
50356;BME280;36264;51.296;-0.602;2022-12-18T05:19:42;101745.78;;;-2.10;100.00
50356;BME280;36264;51.296;-0.602;2022-12-18T05:22:08;101745.03;;;-2.08;100.00
50356;BME280;36264;51.296;-0.602;2022-12-18T05:24:33;101739.97;;;-2.06;100.00
50356;BME280;36264;51.296;-0.602;2022-12-18T05:26:59;101748.66;;;-2.01;100.00
50356;BME280;36264;51.296;-0.602;2022-12-18T05:29:24;101731.69;;;-2.01;100.00
50356;BME280;36264;51.296;-0.602;2022-12-18T05:31:50;101721.56;;;-1.99;100.00
50356;BME280;36264;51.296;-0.602;2022-12-18T05:34:16;101717.50;;;-1.94;100.00
50356;BME280;36264;51.296;-0.602;2022-12-18T05:36:41;101709.81;;;-1.95;100.00
50356;BME280;36264;51.296;-0.602;2022-12-18T05:39:07;101715.06;;;-1.91;100.00
50356;BME280;36264;51.296;-0.602;2022-12-18T05:41:32;101717.72;;;-1.88;100.00
50356;BME280;36264;51.296;-0.602;2022-12-18T05:43:58;101702.13;;;-1.97;100.00
50356;BME280;36264;51.296;-0.602;2022-12-18T05:46:24;101716.16;;;-1.84;100.00
50356;BME280;36264;51.296;-0.602;2022-12-18T05:48:49;101704.41;;;-1.80;100.00
50356;BME280;36264;51.296;-0.602;2022-12-18T05:51:17;101689.13;;;-1.80;100.00
50356;BME280;36264;51.296;-0.602;2022-12-18T05:53:43;101703.00;;;-1.72;100.00
50356;BME280;36264;51.296;-0.602;2022-12-18T05:56:12;101683.47;;;-1.72;100.00
50356;BME280;36264;51.296;-0.602;2022-12-18T05:58:38;101686.25;;;-1.66;100.00
50356;BME280;36264;51.296;-0.602;2022-12-18T06:01:12;101671.16;;;-1.59;100.00
50356;BME280;36264;51.296;-0.602;2022-12-18T06:03:38;101673.00;;;-1.55;100.00
50356;BME280;36264;51.296;-0.602;2022-12-18T06:06:11;101669.72;;;-1.51;100.00
50356;BME280;36264;51.296;-0.602;2022-12-18T06:08:37;101669.88;;;-1.47;100.00
50356;BME280;36264;51.296;-0.602;2022-12-18T06:11:02;101662.41;;;-1.42;100.00
50356;BME280;36264;51.296;-0.602;2022-12-18T06:13:28;101656.53;;;-1.39;100.00
50356;BME280;36264;51.296;-0.602;2022-12-18T06:15:53;101650.66;;;-1.37;100.00
50356;BME280;36264;51.296;-0.602;2022-12-18T06:18:18;101644.91;;;-1.31;100.00
50356;BME280;36264;51.296;-0.602;2022-12-18T06:20:43;101636.53;;;-1.27;100.00
50356;BME280;36264;51.296;-0.602;2022-12-18T06:23:09;101636.78;;;-1.19;100.00
50356;BME280;36264;51.296;-0.602;2022-12-18T06:25:37;101630.00;;;-1.19;100.00
50356;BME280;36264;51.296;-0.602;2022-12-18T06:28:03;101618.84;;;-1.22;100.00
50356;BME280;36264;51.296;-0.602;2022-12-18T06:30:28;101632.06;;;-1.07;100.00
50356;BME280;36264;51.296;-0.602;2022-12-18T06:32:53;101628.72;;;-1.06;100.00
50356;BME280;36264;51.296;-0.602;2022-12-18T06:35:19;101627.16;;;-1.01;100.00
50356;BME280;36264;51.296;-0.602;2022-12-18T06:37:44;101626.50;;;-0.94;100.00
50356;BME280;36264;51.296;-0.602;2022-12-18T06:40:09;101625.84;;;-0.88;100.00
50356;BME280;36264;51.296;-0.602;2022-12-18T06:42:35;101624.09;;;-0.89;100.00
50356;BME280;36264;51.296;-0.602;2022-12-18T06:45:00;101616.53;;;-0.86;100.00
50356;BME280;36264;51.296;-0.602;2022-12-18T06:47:25;101634.53;;;-0.81;100.00
50356;BME280;36264;51.296;-0.602;2022-12-18T06:49:51;101634.69;;;-0.77;100.00
50356;BME280;36264;51.296;-0.602;2022-12-18T06:52:16;101633.06;;;-0.73;100.00
50356;BME280;36264;51.296;-0.602;2022-12-18T06:54:42;101637.50;;;-0.67;100.00
50356;BME280;36264;51.296;-0.602;2022-12-18T06:57:07;101635.91;;;-0.64;100.00
50356;BME280;36264;51.296;-0.602;2022-12-18T06:59:32;101630.13;;;-0.58;100.00
50356;BME280;36264;51.296;-0.602;2022-12-18T07:01:58;101632.81;;;-0.53;100.00
50356;BME280;36264;51.296;-0.602;2022-12-18T07:04:28;101611.47;;;-0.56;100.00
50356;BME280;36264;51.296;-0.602;2022-12-18T07:06:53;101616.78;;;-0.48;100.00
50356;BME280;36264;51.296;-0.602;2022-12-18T07:09:19;101610.06;;;-0.46;100.00
50356;BME280;36264;51.296;-0.602;2022-12-18T07:11:44;101608.41;;;-0.44;100.00
50356;BME280;36264;51.296;-0.602;2022-12-18T07:14:09;101615.41;;;-0.37;100.00
50356;BME280;36264;51.296;-0.602;2022-12-18T07:16:35;101618.06;;;-0.32;100.00
50356;BME280;36264;51.296;-0.602;2022-12-18T07:19:00;101620.66;;;-0.30;100.00
50356;BME280;36264;51.296;-0.602;2022-12-18T07:21:26;101605.19;;;-0.37;100.00
50356;BME280;36264;51.296;-0.602;2022-12-18T07:23:51;101601.09;;;-0.31;100.00
50356;BME280;36264;51.296;-0.602;2022-12-18T07:26:18;101606.31;;;-0.27;100.00
50356;BME280;36264;51.296;-0.602;2022-12-18T07:28:44;101601.31;;;-0.24;100.00
50356;BME280;36264;51.296;-0.602;2022-12-18T07:31:12;101578.06;;;-0.33;100.00
50356;BME280;36264;51.296;-0.602;2022-12-18T07:33:38;101594.66;;;-0.17;100.00
50356;BME280;36264;51.296;-0.602;2022-12-18T07:36:05;101590.38;;;-0.18;100.00
50356;BME280;36264;51.296;-0.602;2022-12-18T07:38:33;101587.91;;;-0.15;100.00
50356;BME280;36264;51.296;-0.602;2022-12-18T07:41:03;101585.41;;;-0.13;100.00
50356;BME280;36264;51.296;-0.602;2022-12-18T07:43:29;101571.78;;;-0.14;100.00
50356;BME280;36264;51.296;-0.602;2022-12-18T07:45:54;101564.97;;;-0.13;100.00
50356;BME280;36264;51.296;-0.602;2022-12-18T07:48:20;101561.63;;;-0.11;100.00
50356;BME280;36264;51.296;-0.602;2022-12-18T07:50:45;101551.31;;;-0.15;100.00
50356;BME280;36264;51.296;-0.602;2022-12-18T07:53:11;101560.75;;;-0.11;100.00
50356;BME280;36264;51.296;-0.602;2022-12-18T07:55:36;101565.84;;;-0.11;100.00
50356;BME280;36264;51.296;-0.602;2022-12-18T07:58:04;101563.31;;;-0.11;100.00
50356;BME280;36264;51.296;-0.602;2022-12-18T08:00:30;101562.56;;;-0.07;100.00
50356;BME280;36264;51.296;-0.602;2022-12-18T08:02:56;101559.13;;;-0.09;100.00
50356;BME280;36264;51.296;-0.602;2022-12-18T08:05:22;101552.41;;;-0.06;100.00
50356;BME280;36264;51.296;-0.602;2022-12-18T08:07:47;101550.69;;;-0.05;100.00
50356;BME280;36264;51.296;-0.602;2022-12-18T08:10:13;101553.38;;;-0.01;100.00
50356;BME280;36264;51.296;-0.602;2022-12-18T08:12:38;101555.13;;;0.01;100.00
50356;BME280;36264;51.296;-0.602;2022-12-18T08:15:04;101559.38;;;0.02;100.00
50356;BME280;36264;51.296;-0.602;2022-12-18T08:17:30;101551.63;;;-0.03;100.00
50356;BME280;36264;51.296;-0.602;2022-12-18T08:19:55;101561.06;;;0.01;100.00
50356;BME280;36264;51.296;-0.602;2022-12-18T08:22:20;101544.66;;;-0.09;100.00
50356;BME280;36264;51.296;-0.602;2022-12-18T08:24:46;101562.81;;;0.02;100.00
50356;BME280;36264;51.296;-0.602;2022-12-18T08:27:11;101568.00;;;0.05;100.00
50356;BME280;36264;51.296;-0.602;2022-12-18T08:29:36;101565.44;;;0.05;100.00
50356;BME280;36264;51.296;-0.602;2022-12-18T08:32:02;101573.97;;;0.06;100.00
50356;BME280;36264;51.296;-0.602;2022-12-18T08:34:27;101569.63;;;0.03;100.00
50356;BME280;36264;51.296;-0.602;2022-12-18T08:36:53;101586.81;;;0.09;100.00
50356;BME280;36264;51.296;-0.602;2022-12-18T08:39:18;101586.84;;;0.10;100.00
50356;BME280;36264;51.296;-0.602;2022-12-18T08:41:44;101585.16;;;0.11;100.00
50356;BME280;36264;51.296;-0.602;2022-12-18T08:44:29;101585.28;;;0.15;100.00
50356;BME280;36264;51.296;-0.602;2022-12-18T08:47:05;101579.31;;;0.15;100.00
50356;BME280;36264;51.296;-0.602;2022-12-18T08:49:30;101580.25;;;0.18;100.00
50356;BME280;36264;51.296;-0.602;2022-12-18T08:51:56;101543.28;;;0.04;100.00
50356;BME280;36264;51.296;-0.602;2022-12-18T08:54:25;101569.25;;;0.21;100.00
50356;BME280;36264;51.296;-0.602;2022-12-18T08:56:52;101559.06;;;0.23;100.00
50356;BME280;36264;51.296;-0.602;2022-12-18T08:59:18;101547.19;;;0.25;100.00
50356;BME280;36264;51.296;-0.602;2022-12-18T09:01:44;101555.03;;;0.32;100.00
50356;BME280;36264;51.296;-0.602;2022-12-18T09:04:10;101552.72;;;0.42;100.00
50356;BME280;36264;51.296;-0.602;2022-12-18T09:06:35;101567.28;;;0.46;100.00
50356;BME280;36264;51.296;-0.602;2022-12-18T09:09:01;101565.59;;;0.46;100.00
50356;BME280;36264;51.296;-0.602;2022-12-18T09:11:28;101562.09;;;0.43;100.00
50356;BME280;36264;51.296;-0.602;2022-12-18T09:13:54;101566.44;;;0.47;100.00
50356;BME280;36264;51.296;-0.602;2022-12-18T09:16:21;101575.91;;;0.49;100.00
50356;BME280;36264;51.296;-0.602;2022-12-18T09:18:47;101573.41;;;0.52;100.00
50356;BME280;36264;51.296;-0.602;2022-12-18T09:21:15;101563.13;;;0.49;100.00
50356;BME280;36264;51.296;-0.602;2022-12-18T09:23:41;101581.94;;;0.53;100.00
50356;BME280;36264;51.296;-0.602;2022-12-18T09:26:07;101587.06;;;0.53;100.00
50356;BME280;36264;51.296;-0.602;2022-12-18T09:28:33;101587.78;;;0.49;100.00
50356;BME280;36264;51.296;-0.602;2022-12-18T09:30:58;101595.56;;;0.53;100.00
50356;BME280;36264;51.296;-0.602;2022-12-18T09:33:24;101593.09;;;0.57;100.00
50356;BME280;36264;51.296;-0.602;2022-12-18T09:35:50;101593.13;;;0.58;100.00
50356;BME280;36264;51.296;-0.602;2022-12-18T09:38:17;101585.47;;;0.58;100.00
50356;BME280;36264;51.296;-0.602;2022-12-18T09:40:57;101584.69;;;0.61;100.00
50356;BME280;36264;51.296;-0.602;2022-12-18T09:43:29;101575.28;;;0.60;100.00
50356;BME280;36264;51.296;-0.602;2022-12-18T09:46:05;101572.00;;;0.65;100.00
50356;BME280;36264;51.296;-0.602;2022-12-18T09:48:35;101574.59;;;0.67;100.00
50356;BME280;36264;51.296;-0.602;2022-12-18T09:51:28;101576.38;;;0.71;100.00
50356;BME280;36264;51.296;-0.602;2022-12-18T09:54:01;101558.38;;;0.66;100.00
50356;BME280;36264;51.296;-0.602;2022-12-18T09:56:34;101581.69;;;0.80;100.00
50356;BME280;36264;51.296;-0.602;2022-12-18T09:59:01;101583.38;;;0.78;100.00
50356;BME280;36264;51.296;-0.602;2022-12-18T10:01:28;101568.06;;;0.80;100.00
50356;BME280;36264;51.296;-0.602;2022-12-18T10:03:54;101566.47;;;0.85;100.00
50356;BME280;36264;51.296;-0.602;2022-12-18T10:06:32;101563.94;;;0.86;100.00
50356;BME280;36264;51.296;-0.602;2022-12-18T10:20:10;101545.47;;;1.00;100.00
50356;BME280;36264;51.296;-0.602;2022-12-18T10:25:26;101545.66;;;1.09;100.00
50356;BME280;36264;51.296;-0.602;2022-12-18T10:27:58;101537.16;;;1.10;100.00
50356;BME280;36264;51.296;-0.602;2022-12-18T10:30:25;101534.72;;;1.16;100.00
50356;BME280;36264;51.296;-0.602;2022-12-18T10:32:52;101528.78;;;1.19;100.00
50356;BME280;36264;51.296;-0.602;2022-12-18T10:35:22;101521.22;;;1.23;100.00
50356;BME280;36264;51.296;-0.602;2022-12-18T10:40:29;101513.56;;;1.25;100.00
50356;BME280;36264;51.296;-0.602;2022-12-18T10:43:14;101519.63;;;1.29;100.00
50356;BME280;36264;51.296;-0.602;2022-12-18T10:45:41;101533.38;;;1.34;100.00
50356;BME280;36264;51.296;-0.602;2022-12-18T10:48:22;101496.56;;;1.27;100.00
50356;BME280;36264;51.296;-0.602;2022-12-18T10:50:50;101508.69;;;1.37;100.00
50356;BME280;36264;51.296;-0.602;2022-12-18T10:53:22;101497.53;;;1.34;100.00
50356;BME280;36264;51.296;-0.602;2022-12-18T10:55:48;101485.53;;;1.31;100.00
50356;BME280;36264;51.296;-0.602;2022-12-18T10:58:31;101482.13;;;1.31;100.00
50356;BME280;36264;51.296;-0.602;2022-12-18T11:01:17;101500.25;;;1.41;100.00
50356;BME280;36264;51.296;-0.602;2022-12-18T11:06:21;101490.03;;;1.43;100.00
50356;BME280;36264;51.296;-0.602;2022-12-18T11:09:02;101483.22;;;1.43;100.00
50356;BME280;36264;51.296;-0.602;2022-12-18T11:11:28;101476.34;;;1.42;100.00
50356;BME280;36264;51.296;-0.602;2022-12-18T11:14:05;101477.19;;;1.40;100.00
50356;BME280;36264;51.296;-0.602;2022-12-18T11:16:42;101478.94;;;1.44;100.00
50356;BME280;36264;51.296;-0.602;2022-12-18T11:19:35;101466.25;;;1.50;100.00
50356;BME280;36264;51.296;-0.602;2022-12-18T11:22:03;101451.78;;;1.54;100.00
50356;BME280;36264;51.296;-0.602;2022-12-18T11:24:43;101446.63;;;1.49;100.00
50356;BME280;36264;51.296;-0.602;2022-12-18T11:27:17;101449.34;;;1.60;100.00
50356;BME280;36264;51.296;-0.602;2022-12-18T11:29:43;101451.81;;;1.55;100.00
50356;BME280;36264;51.296;-0.602;2022-12-18T11:34:43;101452.00;;;1.65;100.00
50356;BME280;36264;51.296;-0.602;2022-12-18T11:37:11;101447.78;;;1.70;100.00
50356;BME280;36264;51.296;-0.602;2022-12-18T11:39:59;101437.59;;;1.71;100.00
50356;BME280;36264;51.296;-0.602;2022-12-18T11:42:44;101429.91;;;1.73;100.00
50356;BME280;36264;51.296;-0.602;2022-12-18T11:47:45;101404.31;;;1.73;100.00
50356;BME280;36264;51.296;-0.602;2022-12-18T11:50:24;101398.31;;;1.71;100.00
50356;BME280;36264;51.296;-0.602;2022-12-18T11:52:50;101386.34;;;1.68;100.00
50356;BME280;36264;51.296;-0.602;2022-12-18T11:58:04;101358.09;;;1.63;100.00
50356;BME280;36264;51.296;-0.602;2022-12-18T12:00:36;101365.13;;;1.78;100.00
50356;BME280;36264;51.296;-0.602;2022-12-18T12:06:28;101361.72;;;1.78;100.00
50356;BME280;36264;51.296;-0.602;2022-12-18T12:09:08;101357.56;;;1.86;100.00
50356;BME280;36264;51.296;-0.602;2022-12-18T12:14:47;101357.66;;;1.91;100.00
50356;BME280;36264;51.296;-0.602;2022-12-18T12:23:13;101328.66;;;1.95;100.00
50356;BME280;36264;51.296;-0.602;2022-12-18T12:25:51;101315.81;;;1.93;100.00
50356;BME280;36264;51.296;-0.602;2022-12-18T12:29:09;101312.44;;;1.96;100.00
50356;BME280;36264;51.296;-0.602;2022-12-18T12:31:33;101309.06;;;1.98;100.00
50356;BME280;36264;51.296;-0.602;2022-12-18T12:34:18;101298.84;;;2.00;100.00
50356;BME280;36264;51.296;-0.602;2022-12-18T12:39:45;101284.34;;;2.02;100.00
50356;BME280;36264;51.296;-0.602;2022-12-18T12:42:41;101268.97;;;2.01;100.00
50356;BME280;36264;51.296;-0.602;2022-12-18T12:45:33;101250.97;;;1.96;100.00
50356;BME280;36264;51.296;-0.602;2022-12-18T12:48:02;101265.56;;;2.02;100.00
50356;BME280;36264;51.296;-0.602;2022-12-18T12:50:33;101258.75;;;2.05;100.00
50356;BME280;36264;51.296;-0.602;2022-12-18T12:53:01;101248.56;;;2.10;100.00
50356;BME280;36264;51.296;-0.602;2022-12-18T12:55:28;101228.84;;;2.03;100.00
50356;BME280;36264;51.296;-0.602;2022-12-18T13:00:49;101228.88;;;2.06;100.00
50356;BME280;36264;51.296;-0.602;2022-12-18T13:06:04;101220.38;;;2.08;100.00
50356;BME280;36264;51.296;-0.602;2022-12-18T13:08:55;101207.59;;;2.13;100.00
50356;BME280;36264;51.296;-0.602;2022-12-18T13:11:31;101223.97;;;2.24;100.00
50356;BME280;36264;51.296;-0.602;2022-12-18T13:14:48;101217.09;;;2.23;100.00
50356;BME280;36264;51.296;-0.602;2022-12-18T13:19:50;101208.59;;;2.24;100.00
50356;BME280;36264;51.296;-0.602;2022-12-18T13:22:28;101191.44;;;2.20;100.00
50356;BME280;36264;51.296;-0.602;2022-12-18T13:24:55;101199.16;;;2.23;100.00
50356;BME280;36264;51.296;-0.602;2022-12-18T13:36:04;101171.81;;;2.21;100.00
50356;BME280;36264;51.296;-0.602;2022-12-18T13:38:37;101173.59;;;2.29;100.00
50356;BME280;36264;51.296;-0.602;2022-12-18T13:41:04;101177.88;;;2.30;100.00
50356;BME280;36264;51.296;-0.602;2022-12-18T13:43:48;101165.06;;;2.29;100.00
50356;BME280;36264;51.296;-0.602;2022-12-18T13:51:33;101165.88;;;2.28;100.00
50356;BME280;36264;51.296;-0.602;2022-12-18T13:54:00;101169.34;;;2.31;100.00
50356;BME280;36264;51.296;-0.602;2022-12-18T13:56:31;101159.09;;;2.31;100.00
50356;BME280;36264;51.296;-0.602;2022-12-18T14:04:28;101159.13;;;2.38;100.00
50356;BME280;36264;51.296;-0.602;2022-12-18T14:06:57;101136.00;;;2.30;100.00
50356;BME280;36264;51.296;-0.602;2022-12-18T14:09:29;101119.69;;;2.20;100.00